Bangs, TX (76823)

2:50 AM CST on February 14, 2016 (GMT -0600)
Buffalo Branch Ranch | | Change Station
CLOSE
Current Station
Personal Weather Station
Location: Bangs, TX
Elevation: 1506 ft
Nearby Weather Stations

Elev 1506 ft 31.80 °N, 99.19 °W | Updated 12 minutes ago

Mostly Cloudy
Mostly Cloudy
54.6 °F
Feels Like 54.6 °F
N
5.0
Wind Variable Wind from SSE
Gusts 9.0 mph

Today
High -- | Low -- °F
--% Chance of Precip.
Yesterday
High -- | Low -- °F
Precip. -- in
Pressure 30.00 in
Visibility 10.0 miles
Clouds Scattered Clouds 3700 ft
Dew Point 48 °F
Humidity 79%
Rainfall 0.00 in
Snow Depth Not available.
7:19 AM 6:22 PM
Waxing Crescent, 39% visible
METAR KBWD 140835Z AUTO 17009KT 10SM SCT037 13/09 A3000 RMK AO2
Pressure 30.00 in
Visibility 10.0 miles
Clouds Scattered Clouds 3700 ft
Dew Point 48 °F
Humidity 79%
Rainfall 0.00 in
Snow Depth Not available.
7:19 AM 6:22 PM
Waxing Crescent, 39% visible
METAR KBWD 140835Z AUTO 17009KT 10SM SCT037 13/09 A3000 RMK AO2

10-Day Weather Forecast

Almanac

Astronomy

Feb. 14, 2016 Rise Set
Actual Time
Civil Twilight
Nautical Twilight
Astronomical Twilight
Moon
Length of Visible Light
Length of Day
Tomorrow will be .
, % of the Moon is Illuminated

Today's Extremes

State Highs State Lows

Community

WunderPhotos

Upload Photos

1,892,763 photos uploaded!

WunderBlog® & News

Nearby

Air Quality

  Air Quality AQ Index Pollutant
Not available.

Snow Depth

Station Depth Elevation

Earthquake Activity

City Distance Mag. Time & Date
Minimum magnitude displayed is 2.5.

Coastal Water Temperatures

Place Temperature

Stations

Nearby Weather Stations

Station Location Temp. Windchill Dew Point Humidity Wind Precip. Elev Updated Type
                   

Watches & Warnings

There are currently no watches in effect.